East Lansing, MI

1:52 AM EST on March 01, 2015 (GMT -0500)
Whitehills Lakes | Change Station
CLOSE
Current Station
Personal Weather Station
Location: East Lansing, MI
Elevation: 856 ft
Nearby Weather Stations

Elev 856 ft 42.77 °N, 84.45 °W | Updated 32 seconds ago

Partly Cloudy
Partly Cloudy
14.4 °F
Feels Like 14 °F
N
1.3
Wind Variable Wind from ESE
Gusts 1.3 mph

Today
High -- | Low -- °F
--% Chance of Precip.
Yesterday
High -- | Low -- °F
Precip. -- in
7:13 AM 6:27 PM
Waxing Gibbous, 83% visible
Pressure 30.48 in
Visibility 2.5 miles
Clouds Overcast 3000 ft
Windchill 14 °F
Dew Point 3 °F
Humidity 59%
Rainfall 0.00 in
Snow Depth Not available.
UV 0 out of 12
Pollen .40 out of 12
Air Quality Not available.
Flu Activity Not available.
SPECI KLAN 010618Z 20006KT 2 1/2SM -SN OVC030 M09/M14 A3048 RMK AO2 P0000 T10941139

More Conditions Fewer Conditions

Pressure 30.48 in
Visibility 2.5 miles
Clouds Overcast 3000 ft
Windchill 14 °F
Dew Point 3 °F
Humidity 59%
Rainfall 0.00 in
Snow Depth Not available.
UV 0 out of 12
Pollen .40 out of 12
Air Quality Not available.
Flu Activity Not available.
SPECI KLAN 010618Z 20006KT 2 1/2SM -SN OVC030 M09/M14 A3048 RMK AO2 P0000 T10941139

More Conditions Fewer Conditions

10-Day Weather Forecast

Almanac

Astronomy

Mar. 01, 2015 Rise Set
Actual Time
Civil Twilight
Nautical Twilight
Astronomical Twilight
Moon
Length of Visible Light
Length of Day
Tomorrow will be .
, % of the Moon is Illuminated

Today's Extremes

State Highs State Lows

Community

WunderPhotos

Upload Photos

1,801,345 photos uploaded!

WunderBlogs® & News

Nearby

Air Quality

  Air Quality AQ Index Pollutant
Not available.

Snow Depth

Station Depth Elevation

Earthquake Activity

City Distance Mag. Time & Date
Minimum magnitude displayed is 2.5.

Coastal Water Temperatures

Place Temperature

Nearby Weather Stations